Time;durP1;ratioP1;P1;durP2;ratioP2;P2;SDS_P1;SDS_P2;PMS_P1;PMS_P2;Temp;Humidity;BMP_temperature;BMP_pressure;BME280_temperature;BME280_humidity;BME280_pressure;Samples;Min_cycle;Max_cycle;Signal;HPM_P1;HPM_P2
2022/10/15 00:00:56;;;;;;;29.23;18.30;;;;;;;12.03;100.00;99878.81;2853019;82;21039;-90
2022/10/15 00:04:58;;;;;;;24.12;16.42;;;;;;;12.01;100.00;99874.13;2795814;82;21063;-91
2022/10/15 00:09:00;;;;;;;25.50;20.43;;;;;;;12.05;100.00;99876.84;2845949;81;21078;-92
2022/10/15 00:13:02;;;;;;;28.45;17.20;;;;;;;12.06;100.00;99861.67;2849466;81;21058;-92
2022/10/15 00:17:03;;;;;;;23.18;16.93;;;;;;;12.04;100.00;99859.17;2849648;81;21436;-92
2022/10/15 00:21:07;;;;;;;21.95;18.40;;;;;;;12.00;100.00;99856.42;2772203;82;21377;-92
2022/10/15 00:25:09;;;;;;;23.22;16.40;;;;;;;11.97;100.00;99846.02;2834578;82;21121;-91
2022/10/15 00:29:11;;;;;;;29.10;17.48;;;;;;;12.01;100.00;99852.80;2858970;82;21126;-92
2022/10/15 00:33:12;;;;;;;25.92;18.70;;;;;;;12.05;100.00;99854.19;2844691;81;21154;-92
2022/10/15 00:37:13;;;;;;;22.73;17.45;;;;;;;12.10;100.00;99840.42;2850587;81;21070;-92
2022/10/15 00:41:22;;;;;;;19.82;17.73;;;;;;;12.18;100.00;99835.66;2850123;81;21095;-92
2022/10/15 00:45:23;;;;;;;29.12;18.60;;;;;;;12.21;100.00;99833.55;2862780;82;21035;-91
2022/10/15 00:49:46;;;;;;;29.18;19.67;;;;;;;12.27;100.00;99820.13;2855512;81;21040;-91
2022/10/15 00:53:49;;;;;;;22.13;16.67;;;;;;;12.37;100.00;99822.73;2838336;82;21086;-90
2022/10/15 00:57:51;;;;;;;27.50;18.48;;;;;;;12.39;100.00;99818.09;2833115;82;21634;-91
2022/10/15 01:01:54;;;;;;;29.15;21.52;;;;;;;12.42;100.00;99806.64;2849594;81;21073;-90
2022/10/15 01:05:55;;;;;;;33.75;20.45;;;;;;;12.48;100.00;99805.69;2854479;82;21043;-91
2022/10/15 01:09:56;;;;;;;25.70;17.35;;;;;;;12.53;100.00;99799.40;2829606;82;21126;-91
2022/10/15 01:14:15;;;;;;;24.45;16.15;;;;;;;12.60;100.00;99787.63;2863024;81;21091;-91
2022/10/15 01:18:34;;;;;;;29.00;20.37;;;;;;;12.60;100.00;99777.81;2815402;82;21135;-91
2022/10/15 01:23:14;;;;;;;23.73;18.67;;;;;;;12.59;100.00;99776.14;2860134;81;21565;-90
2022/10/15 01:27:30;;;;;;;21.95;17.65;;;;;;;12.60;100.00;99770.29;2833697;82;21074;-91
2022/10/15 01:32:08;;;;;;;26.35;19.25;;;;;;;12.64;100.00;99772.52;2851568;81;21015;-91
2022/10/15 01:36:35;;;;;;;19.32;16.70;;;;;;;12.70;100.00;99774.56;2789420;83;21043;-91
2022/10/15 01:40:47;;;;;;;22.42;16.65;;;;;;;12.69;100.00;99761.39;2743921;85;21015;-91
2022/10/15 01:44:53;;;;;;;24.70;15.28;;;;;;;12.69;100.00;99754.20;2759312;84;21163;-91
2022/10/15 01:48:56;;;;;;;;;;;;;;;12.64;100.00;99752.50;2752419;85;21515;-90
2022/10/15 01:53:00;;;;;;;25.80;17.95;;;;;;;12.51;100.00;99746.21;2677896;87;20155;-91
2022/10/15 01:57:03;;;;;;;24.60;17.40;;;;;;;12.43;100.00;99737.62;2705878;86;21088;-91
2022/10/15 02:01:04;;;;;;;24.77;18.12;;;;;;;12.44;100.00;99733.12;2709710;87;21062;-91
2022/10/15 02:05:18;;;;;;;23.12;17.07;;;;;;;12.51;100.00;99732.02;2725189;85;21163;-91
2022/10/15 02:09:39;;;;;;;28.12;18.55;;;;;;;12.55;100.00;99738.24;2723551;85;21079;-90
2022/10/15 02:13:51;;;;;;;25.12;16.93;;;;;;;12.46;100.00;99733.80;2759689;85;21647;-90
2022/10/15 02:18:10;;;;;;;22.77;16.60;;;;;;;12.42;100.00;99730.62;2723265;85;21079;-90
2022/10/15 02:22:40;;;;;;;30.90;18.05;;;;;;;12.40;100.00;99733.94;2758302;85;21085;-90
2022/10/15 02:26:42;;;;;;;26.65;18.27;;;;;;;12.47;100.00;99735.48;2738280;84;21590;-90
2022/10/15 02:30:47;;;;;;;26.17;17.87;;;;;;;12.52;100.00;99717.69;2757548;83;21717;-89
2022/10/15 02:34:50;;;;;;;24.85;17.70;;;;;;;12.54;100.00;99715.22;2775592;84;21722;-90
2022/10/15 02:38:55;;;;;;;25.20;18.60;;;;;;;12.62;100.00;99712.27;2722131;84;21078;-88
2022/10/15 02:42:56;;;;;;;24.72;18.75;;;;;;;12.61;100.00;99694.59;2761389;85;21088;-89
2022/10/15 02:46:59;;;;;;;23.32;16.82;;;;;;;12.64;100.00;99695.13;2740287;85;21075;-90
2022/10/15 02:51:00;;;;;;;25.48;15.15;;;;;;;12.65;100.00;99694.14;2773311;84;21051;-89
2022/10/15 02:55:01;;;;;;;26.62;17.35;;;;;;;12.74;100.00;99680.85;2778016;84;21036;-89
2022/10/15 02:59:04;;;;;;;25.08;17.50;;;;;;;12.81;100.00;99673.92;2784737;84;21057;-90
2022/10/15 03:03:05;;;;;;;25.48;17.30;;;;;;;12.84;100.00;99670.94;2741263;85;21050;-90
2022/10/15 03:07:06;;;;;;;26.40;17.27;;;;;;;12.84;100.00;99671.76;2740683;84;21082;-90
2022/10/15 03:11:08;;;;;;;20.60;17.50;;;;;;;12.90;100.00;99667.63;2735510;85;21214;-90
2022/10/15 03:15:09;;;;;;;25.40;18.35;;;;;;;12.94;100.00;99671.66;2739169;84;21117;-90
2022/10/15 03:19:10;;;;;;;29.42;17.15;;;;;;;12.99;100.00;99673.38;2764810;84;21048;-90
2022/10/15 03:23:12;;;;;;;25.97;18.65;;;;;;;13.04;100.00;99662.73;2747609;84;21080;-89
2022/10/15 03:27:13;;;;;;;22.35;18.30;;;;;;;13.07;100.00;99665.08;2717259;84;21066;-90
2022/10/15 03:31:14;;;;;;;24.98;17.17;;;;;;;13.13;100.00;99669.78;2739962;84;21044;-91
2022/10/15 03:35:16;;;;;;;26.95;17.27;;;;;;;13.24;100.00;99672.67;2741539;85;21643;-91
2022/10/15 03:39:17;;;;;;;24.05;16.82;;;;;;;13.26;100.00;99666.19;2739891;84;21138;-89
2022/10/15 03:43:18;;;;;;;27.15;18.00;;;;;;;13.23;100.00;99662.50;2750415;84;21076;-91
2022/10/15 03:47:19;;;;;;;26.90;19.23;;;;;;;13.22;100.00;99654.16;2704489;84;21597;-91
2022/10/15 03:51:20;;;;;;;25.37;17.62;;;;;;;13.21;100.00;99663.17;2833459;82;21553;-90
2022/10/15 03:55:21;;;;;;;29.20;18.60;;;;;;;13.11;100.00;99647.73;2854951;81;21605;-90
2022/10/15 03:59:22;;;;;;;26.95;18.55;;;;;;;13.05;100.00;99647.87;2862598;82;21844;-90
2022/10/15 04:03:24;;;;;;;26.57;18.60;;;;;;;13.05;100.00;99646.53;2792571;84;21130;-90
2022/10/15 04:07:25;;;;;;;23.90;19.40;;;;;;;13.06;100.00;99639.38;2738546;85;21098;-91
2022/10/15 04:11:26;;;;;;;23.40;16.77;;;;;;;13.06;100.00;99634.85;2853995;82;21074;-91
2022/10/15 04:15:27;;;;;;;27.62;16.87;;;;;;;13.10;100.00;99635.39;2852142;82;21024;-90
2022/10/15 04:19:29;;;;;;;26.70;19.25;;;;;;;13.07;100.00;99638.38;2869090;82;21114;-91
2022/10/15 04:23:30;;;;;;;29.50;19.25;;;;;;;13.00;100.00;99640.35;2801434;82;21082;-92
2022/10/15 04:27:31;;;;;;;26.37;18.85;;;;;;;12.95;100.00;99640.48;2857973;81;21034;-91
2022/10/15 04:31:32;;;;;;;33.65;21.15;;;;;;;12.90;100.00;99639.61;2862811;81;22535;-91
2022/10/15 04:35:34;;;;;;;26.00;18.98;;;;;;;12.89;100.00;99637.11;2850357;82;21589;-91
2022/10/15 04:39:35;;;;;;;25.92;19.65;;;;;;;12.82;100.00;99642.23;2852071;81;22192;-92
2022/10/15 04:43:37;;;;;;;21.48;16.55;;;;;;;12.88;100.00;99629.59;2868201;82;21574;-91
2022/10/15 04:47:38;;;;;;;25.75;17.75;;;;;;;12.92;100.00;99630.13;2857094;81;21050;-90
2022/10/15 04:51:39;;;;;;;26.57;19.25;;;;;;;12.89;100.00;99639.27;2722562;84;21043;-91
2022/10/15 04:55:41;;;;;;;82.37;51.30;;;;;;;12.91;100.00;99634.61;2780845;84;21050;-91
2022/10/15 04:59:43;;;;;;;69.32;44.75;;;;;;;12.86;100.00;99630.25;2740000;84;21579;-91
2022/10/15 05:03:47;;;;;;;41.30;27.35;;;;;;;12.76;100.00;99630.34;2839608;83;21027;-90
2022/10/15 05:07:48;;;;;;;44.88;25.62;;;;;;;12.80;100.00;99633.03;2855323;81;21067;-90
2022/10/15 05:11:49;;;;;;;27.22;19.17;;;;;;;12.83;100.00;99626.56;2844302;82;21090;-91
2022/10/15 05:15:50;;;;;;;30.37;19.45;;;;;;;12.91;100.00;99622.59;2856507;81;21107;-92
2022/10/15 05:19:51;;;;;;;24.18;18.17;;;;;;;12.99;100.00;99627.15;2843512;82;21034;-90
2022/10/15 05:23:52;;;;;;;32.25;20.23;;;;;;;12.99;100.00;99618.66;2805838;82;21061;-91
2022/10/15 05:27:54;;;;;;;31.20;19.87;;;;;;;12.94;100.00;99620.94;2698737;85;21052;-91
2022/10/15 05:31:56;;;;;;;35.28;22.40;;;;;;;13.02;100.00;99620.67;2751583;84;21074;-91
2022/10/15 05:35:57;;;;;;;28.73;19.80;;;;;;;13.07;100.00;99631.70;2699966;84;21050;-91
2022/10/15 05:39:58;;;;;;;27.17;19.75;;;;;;;13.08;100.00;99633.38;2754020;85;21104;-91
2022/10/15 05:43:59;;;;;;;26.42;19.15;;;;;;;13.10;100.00;99633.56;2690384;84;21034;-91
2022/10/15 05:48:00;;;;;;;37.28;21.68;;;;;;;13.17;100.00;99632.44;2741284;85;21068;-91
2022/10/15 05:52:01;;;;;;;25.60;18.80;;;;;;;13.22;100.00;99639.47;2732165;85;21067;-90
2022/10/15 05:56:04;;;;;;;27.05;18.12;;;;;;;13.34;100.00;99645.37;2663727;84;21116;-91
2022/10/15 06:00:07;;;;;;;29.72;19.85;;;;;;;13.46;100.00;99645.95;2726921;83;21109;-91
2022/10/15 06:04:10;;;;;;;26.37;18.25;;;;;;;13.59;100.00;99650.02;2733221;83;21096;-90
2022/10/15 06:08:11;;;;;;;28.95;19.48;;;;;;;13.70;100.00;99653.23;2748172;84;21148;-92
2022/10/15 06:12:12;;;;;;;28.75;18.12;;;;;;;13.79;100.00;99652.77;2736081;84;21112;-91
2022/10/15 06:16:16;;;;;;;25.10;17.25;;;;;;;13.88;100.00;99659.45;2840093;81;21066;-92
2022/10/15 06:20:17;;;;;;;31.48;19.87;;;;;;;13.98;100.00;99659.65;2844891;82;21192;-91
2022/10/15 06:24:18;;;;;;;24.82;18.07;;;;;;;14.11;100.00;99661.84;2838169;81;21053;-92
2022/10/15 06:28:19;;;;;;;28.25;19.57;;;;;;;14.28;100.00;99657.86;2802244;81;21502;-91
2022/10/15 06:32:20;;;;;;;30.68;21.75;;;;;;;14.39;100.00;99661.56;2844442;82;21055;-91
2022/10/15 06:36:23;;;;;;;27.77;19.85;;;;;;;14.51;100.00;99663.41;2818479;82;21042;-91
2022/10/15 06:40:24;;;;;;;32.30;22.35;;;;;;;14.69;100.00;99665.90;2846081;83;21060;-92
2022/10/15 06:44:25;;;;;;;27.60;17.87;;;;;;;14.91;100.00;99668.92;2814010;81;21055;-91
2022/10/15 06:48:26;;;;;;;26.62;20.43;;;;;;;14.96;100.00;99670.61;2856050;82;21035;-91
2022/10/15 06:52:29;;;;;;;26.12;20.88;;;;;;;14.79;100.00;99672.97;2860277;82;21038;-90
2022/10/15 06:56:30;;;;;;;26.52;18.98;;;;;;;14.57;100.00;99665.41;2831963;81;21339;-89
2022/10/15 07:00:31;;;;;;;30.12;20.85;;;;;;;14.49;100.00;99665.42;2847378;81;21050;-87
2022/10/15 07:04:33;;;;;;;31.00;19.77;;;;;;;14.61;100.00;99668.59;2853954;81;21022;-88
2022/10/15 07:08:35;;;;;;;26.97;19.60;;;;;;;14.75;100.00;99681.02;2869674;82;21092;-89
2022/10/15 07:12:36;;;;;;;29.87;19.65;;;;;;;14.87;100.00;99666.26;2842821;81;21402;-89
2022/10/15 07:16:38;;;;;;;27.95;20.37;;;;;;;15.09;100.00;99670.58;2858848;81;21116;-90
2022/10/15 07:20:40;;;;;;;28.25;21.10;;;;;;;15.28;100.00;99672.87;2870392;82;21050;-89
2022/10/15 07:24:42;;;;;;;27.52;20.92;;;;;;;15.53;100.00;99678.17;2866745;81;21402;-90
2022/10/15 07:28:43;;;;;;;27.85;20.05;;;;;;;15.80;100.00;99684.09;2857427;82;21059;-89
2022/10/15 07:32:44;;;;;;;25.43;17.45;;;;;;;16.01;100.00;99678.64;2825972;81;20972;-89
2022/10/15 07:36:45;;;;;;;24.70;18.50;;;;;;;16.13;100.00;99686.63;2811396;81;21020;-91
2022/10/15 07:40:46;;;;;;;34.33;23.30;;;;;;;16.13;99.19;99685.30;2845383;80;21110;-91
2022/10/15 07:44:47;;;;;;;28.25;21.97;;;;;;;16.09;100.00;99689.31;2847089;81;21024;-89
2022/10/15 07:48:48;;;;;;;29.77;20.97;;;;;;;15.96;100.00;99687.73;2833982;82;21058;-91
2022/10/15 07:52:49;;;;;;;27.17;18.52;;;;;;;16.00;100.00;99686.36;2852591;81;21020;-91
2022/10/15 07:56:50;;;;;;;28.75;21.10;;;;;;;15.98;100.00;99676.32;2796886;82;21047;-92
2022/10/15 08:00:51;;;;;;;32.73;21.15;;;;;;;15.93;100.00;99682.73;2837974;82;21078;-91
2022/10/15 08:04:53;;;;;;;29.82;20.55;;;;;;;15.90;100.00;99678.53;2853222;81;21051;-88
2022/10/15 08:08:54;;;;;;;27.75;20.15;;;;;;;16.00;100.00;99682.34;2868345;80;21494;-87
2022/10/15 08:12:55;;;;;;;25.90;20.12;;;;;;;16.03;100.00;99691.38;2841664;82;21566;-87
2022/10/15 08:16:56;;;;;;;30.43;22.42;;;;;;;16.09;100.00;99690.66;2865078;82;20984;-86
2022/10/15 08:20:59;;;;;;;33.65;19.70;;;;;;;16.11;100.00;99697.20;2845089;81;21037;-86
2022/10/15 08:25:01;;;;;;;24.35;17.92;;;;;;;16.26;100.00;99705.32;2847764;82;21026;-87
2022/10/15 08:29:05;;;;;;;25.50;19.17;;;;;;;16.22;100.00;99706.69;2821179;82;21086;-90
2022/10/15 08:33:06;;;;;;;24.90;19.15;;;;;;;16.12;100.00;99705.09;2862434;82;21757;-88
2022/10/15 08:37:08;;;;;;;24.52;17.98;;;;;;;16.09;100.00;99704.07;2828483;81;31036;-87
2022/10/15 08:41:32;;;;;;;21.85;16.30;;;;;;;16.11;100.00;99707.44;2689570;84;21052;-89
2022/10/15 08:45:41;;;;;;;21.23;18.45;;;;;;;16.10;100.00;99712.97;2620735;88;22029;-87
2022/10/15 08:49:53;;;;;;;17.65;14.03;;;;;;;16.19;100.00;99704.37;2651524;88;21167;-88
2022/10/15 08:53:58;;;;;;;18.25;14.78;;;;;;;16.32;100.00;99703.29;2628399;88;21825;-86
2022/10/15 08:58:38;;;;;;;23.73;15.80;;;;;;;16.46;100.00;99707.05;2610639;88;21620;-86
2022/10/15 09:03:18;;;;;;;20.65;17.12;;;;;;;16.53;100.00;99706.65;2621938;88;22395;-87
2022/10/15 09:07:46;;;;;;;20.75;17.00;;;;;;;16.63;100.00;99706.41;2626324;88;21113;-87
2022/10/15 09:12:15;;;;;;;20.37;16.32;;;;;;;16.70;100.00;99702.01;2595859;90;21111;-87
2022/10/15 09:16:27;;;;;;;27.73;17.23;;;;;;;16.78;100.00;99695.70;2597405;89;21113;-87
2022/10/15 09:20:35;;;;;;;21.62;16.12;;;;;;;16.89;100.00;99693.09;2673215;84;21164;-87
2022/10/15 09:24:46;;;;;;;21.95;19.07;;;;;;;16.96;100.00;99695.39;2747620;83;21078;-87
2022/10/15 09:29:06;;;;;;;31.37;22.05;;;;;;;16.98;100.00;99692.51;2756929;84;21587;-87
2022/10/15 09:33:37;;;;;;;77.60;44.42;;;;;;;17.19;100.00;99699.05;2754184;84;21119;-87
2022/10/15 09:38:04;;;;;;;24.32;15.40;;;;;;;17.31;100.00;99698.94;2763452;84;21586;-87
2022/10/15 09:42:36;;;;;;;20.15;15.72;;;;;;;17.36;100.00;99705.11;2761740;84;21075;-87
2022/10/15 09:46:47;;;;;;;18.27;14.80;;;;;;;17.60;100.00;99706.70;2757260;83;21076;-86
2022/10/15 09:51:03;;;;;;;19.77;13.98;;;;;;;17.82;100.00;99710.27;2753251;84;21063;-86
2022/10/15 09:55:41;;;;;;;16.45;12.90;;;;;;;18.04;100.00;99722.47;2610276;88;21104;-88
2022/10/15 10:00:02;;;;;;;14.28;9.25;;;;;;;18.24;100.00;99721.38;2599607;89;21137;-86
2022/10/15 10:04:18;;;;;;;15.18;9.93;;;;;;;18.38;100.00;99722.34;2620244;88;21076;-86
2022/10/15 10:08:23;;;;;;;12.65;10.55;;;;;;;18.50;100.00;99723.19;2617852;88;21606;-85
2022/10/15 10:12:30;;;;;;;9.15;6.60;;;;;;;18.60;99.45;99722.88;2599394;88;21079;-85
2022/10/15 10:16:35;;;;;;;4.33;2.72;;;;;;;18.75;99.44;99719.58;2626886;89;21102;-85
2022/10/15 10:20:38;;;;;;;;;;;;;;;18.90;96.70;99715.98;2589545;89;21115;-86
2022/10/15 10:24:40;;;;;;;2.37;2.17;;;;;;;18.86;95.41;99717.40;2588347;89;20113;-87
2022/10/15 10:28:56;;;;;;;1.92;1.07;;;;;;;18.89;94.75;99719.70;2618931;89;21658;-85
2022/10/15 10:33:00;;;;;;;2.08;1.67;;;;;;;18.95;95.21;99721.11;2720386;84;21097;-85
2022/10/15 10:37:03;;;;;;;1.27;1.15;;;;;;;18.92;93.18;99718.80;2720361;84;21085;-84
2022/10/15 10:41:08;;;;;;;2.12;1.92;;;;;;;19.03;94.77;99713.93;2739442;84;21035;-85
2022/10/15 10:45:22;;;;;;;1.05;0.95;;;;;;;19.04;93.88;99711.55;2739333;84;21029;-84
2022/10/15 10:49:37;;;;;;;3.55;2.12;;;;;;;19.09;92.65;99704.55;2767537;83;21650;-85
2022/10/15 10:53:49;;;;;;;4.28;1.47;;;;;;;19.07;93.60;99712.53;2744473;84;21050;-84
2022/10/15 10:57:58;;;;;;;1.42;1.05;;;;;;;19.15;92.67;99711.52;2741030;84;21025;-84
2022/10/15 11:02:02;;;;;;;1.30;1.10;;;;;;;19.22;96.07;99709.20;2751207;85;21086;-85
2022/10/15 11:06:26;;;;;;;3.72;2.02;;;;;;;19.12;92.05;99708.20;2674294;85;21043;-83
2022/10/15 11:10:41;;;;;;;1.70;1.20;;;;;;;19.16;91.13;99709.99;2744491;85;21120;-83
2022/10/15 11:15:17;;;;;;;2.30;2.05;;;;;;;19.22;91.92;99705.69;2825997;82;21020;-83
2022/10/15 11:19:51;;;;;;;2.33;1.80;;;;;;;19.19;91.44;99697.47;2876331;81;21044;-84
2022/10/15 11:24:20;;;;;;;1.20;1.10;;;;;;;19.11;91.11;99694.41;2848316;82;21629;-84
2022/10/15 11:28:58;;;;;;;3.08;2.77;;;;;;;19.16;90.58;99700.56;2840693;80;21122;-84
2022/10/15 11:33:07;;;;;;;7.40;2.83;;;;;;;19.18;90.67;99706.58;2826522;81;21020;-83
2022/10/15 11:37:38;;;;;;;2.85;2.58;;;;;;;19.10;89.42;99706.22;2824753;82;21036;-82
2022/10/15 11:42:11;;;;;;;4.53;3.40;;;;;;;19.20;89.03;99701.02;2814043;82;21083;-86
2022/10/15 11:46:23;;;;;;;3.95;3.25;;;;;;;19.16;87.44;99703.26;2845137;82;21019;-84
2022/10/15 11:50:36;;;;;;;5.78;4.80;;;;;;;19.11;88.23;99703.84;2870338;81;21047;-83
2022/10/15 11:54:54;;;;;;;4.60;4.05;;;;;;;18.91;87.45;99715.80;2814127;82;21086;-83
2022/10/15 11:59:03;;;;;;;5.92;4.85;;;;;;;18.80;88.51;99708.23;2790259;83;21189;-83
2022/10/15 12:03:18;;;;;;;5.83;5.20;;;;;;;18.63;88.33;99696.90;2748377;84;21043;-83
2022/10/15 12:07:36;;;;;;;7.35;6.75;;;;;;;18.62;89.07;99693.89;2655047;88;21090;-83
2022/10/15 12:11:42;;;;;;;8.33;6.72;;;;;;;18.66;90.20;99701.36;2665649;88;21583;-83
2022/10/15 12:16:07;;;;;;;11.25;8.43;;;;;;;18.72;90.29;99700.30;2655524;87;21060;-83
2022/10/15 12:20:15;;;;;;;10.40;9.30;;;;;;;18.86;89.72;99699.89;2641605;88;21651;-82
2022/10/15 12:24:51;;;;;;;11.22;8.33;;;;;;;18.85;88.35;99699.04;2640644;88;21067;-82
2022/10/15 12:28:51;;;;;;;10.10;9.03;;;;;;;18.95;90.36;99698.70;2653890;88;21161;-83
2022/10/15 12:32:53;;;;;;;14.15;9.15;;;;;;;18.96;87.85;99695.83;2654111;88;21736;-82
2022/10/15 12:37:09;;;;;;;12.05;10.35;;;;;;;19.04;88.25;99699.42;2687479;87;21140;-82
2022/10/15 12:41:13;;;;;;;13.20;11.63;;;;;;;19.10;88.92;99701.36;2637735;87;21090;-82
2022/10/15 12:45:22;;;;;;;11.97;9.10;;;;;;;19.10;88.72;99695.97;2803677;82;21003;-83
2022/10/15 12:49:34;;;;;;;21.52;14.25;;;;;;;19.08;89.48;99698.84;2859811;81;21046;-83
2022/10/15 12:53:43;;;;;;;17.37;13.58;;;;;;;19.07;87.91;99701.75;2830529;81;21082;-83
2022/10/15 12:57:55;;;;;;;20.12;14.95;;;;;;;19.04;87.08;99711.55;2847991;81;21047;-83
2022/10/15 13:01:56;;;;;;;18.30;15.05;;;;;;;18.83;87.64;99714.57;2818454;82;21018;-82
2022/10/15 13:06:23;;;;;;;21.80;15.25;;;;;;;18.66;87.67;99714.83;2815262;82;21081;-82
2022/10/15 13:10:48;;;;;;;19.07;14.43;;;;;;;18.60;87.58;99715.61;2840364;81;21134;-82
2022/10/15 13:15:02;;;;;;;18.75;14.70;;;;;;;18.38;88.70;99715.61;2833364;82;21020;-82
2022/10/15 13:19:03;;;;;;;19.17;14.78;;;;;;;18.23;88.70;99722.89;2870310;80;21602;-82
2022/10/15 13:23:26;;;;;;;23.30;17.65;;;;;;;18.12;89.56;99722.88;2732369;84;21063;-82
2022/10/15 13:27:36;;;;;;;18.20;13.93;;;;;;;18.04;90.95;99719.78;2787529;84;21700;-82
2022/10/15 13:31:43;;;;;;;27.00;16.93;;;;;;;17.95;91.89;99715.52;2794730;83;21073;-82
2022/10/15 13:35:43;;;;;;;19.32;15.10;;;;;;;17.99;92.86;99715.45;2847325;81;21032;-83
2022/10/15 13:39:44;;;;;;;24.50;16.50;;;;;;;17.99;93.20;99720.34;2851653;81;21048;-83
2022/10/15 13:43:51;;;;;;;19.42;15.63;;;;;;;18.05;93.25;99717.41;2852795;80;21066;-84
2022/10/15 13:47:54;;;;;;;19.37;14.35;;;;;;;18.08;92.85;99714.37;2800923;82;21047;-83
2022/10/15 13:51:55;;;;;;;17.55;15.63;;;;;;;18.18;93.59;99717.25;2872366;80;21031;-83
2022/10/15 13:56:01;;;;;;;17.60;13.40;;;;;;;18.22;92.83;99715.84;2844732;81;21602;-83
2022/10/15 14:00:03;;;;;;;19.57;16.50;;;;;;;18.36;93.16;99714.97;2789987;82;21031;-82
2022/10/15 14:04:15;;;;;;;16.75;14.75;;;;;;;18.43;92.74;99723.12;2829561;80;21067;-83
2022/10/15 14:08:24;;;;;;;19.35;13.30;;;;;;;18.49;92.35;99724.22;2855961;82;21036;-83
2022/10/15 14:12:25;;;;;;;16.60;13.03;;;;;;;18.59;91.53;99730.63;2832303;80;20964;-85
2022/10/15 14:16:40;;;;;;;17.60;14.30;;;;;;;18.59;91.44;99732.80;2862179;81;21040;-84
2022/10/15 14:20:47;;;;;;;17.48;13.70;;;;;;;18.59;91.59;99732.80;2821920;82;21036;-84
2022/10/15 14:24:51;;;;;;;19.62;14.28;;;;;;;18.52;89.61;99723.83;2847605;80;21023;-83
2022/10/15 14:28:54;;;;;;;24.80;19.05;;;;;;;18.39;89.40;99722.66;2867216;80;21031;-83
2022/10/15 14:32:55;;;;;;;18.62;14.40;;;;;;;18.32;89.71;99720.92;2874988;80;21007;-83
2022/10/15 14:36:56;;;;;;;17.90;14.70;;;;;;;18.22;90.67;99715.84;2844868;82;21023;-84
2022/10/15 14:41:06;;;;;;;16.90;11.43;;;;;;;18.15;91.60;99718.45;2826841;80;21078;-84
2022/10/15 14:45:26;;;;;;;13.13;11.70;;;;;;;18.08;91.96;99722.44;2871029;81;21059;-83
2022/10/15 14:49:32;;;;;;;17.05;12.75;;;;;;;18.03;91.84;99726.19;2846275;81;21444;-83
2022/10/15 14:53:37;;;;;;;18.82;14.23;;;;;;;17.91;92.04;99729.02;2848971;81;21054;-85
2022/10/15 14:57:41;;;;;;;;;;;;;;;17.92;94.55;99737.41;2865248;81;21082;-85
2022/10/15 15:01:58;;;;;;;20.27;12.63;;;;;;;17.93;95.18;99738.55;2849444;81;20142;-85
2022/10/15 15:05:59;;;;;;;18.25;13.98;;;;;;;17.93;95.73;99753.88;2849063;82;21051;-85
2022/10/15 15:10:00;;;;;;;19.12;13.70;;;;;;;17.91;95.45;99750.02;2860938;82;21023;-85
2022/10/15 15:14:02;;;;;;;23.92;17.65;;;;;;;17.83;95.69;99739.38;2849023;82;21150;-84
2022/10/15 15:18:03;;;;;;;18.80;13.58;;;;;;;17.83;95.73;99746.09;2814158;82;21075;-84
2022/10/15 15:22:04;;;;;;;12.50;10.93;;;;;;;17.83;95.99;99759.02;2852997;82;21071;-85
2022/10/15 15:26:05;;;;;;;11.43;8.80;;;;;;;17.77;96.49;99757.09;2703250;85;21193;-85
2022/10/15 15:30:11;;;;;;;7.92;6.75;;;;;;;17.72;97.04;99768.92;2763317;84;21177;-85
2022/10/15 15:34:12;;;;;;;11.68;8.53;;;;;;;17.76;96.59;99771.55;2739847;85;21061;-85
2022/10/15 15:38:13;;;;;;;12.47;11.18;;;;;;;17.78;96.69;99765.97;2859560;81;21022;-85
2022/10/15 15:42:19;;;;;;;9.48;8.15;;;;;;;17.76;96.72;99762.14;2849195;81;21058;-85
2022/10/15 15:46:20;;;;;;;14.18;9.58;;;;;;;17.72;97.47;99758.66;2843766;81;21023;-85
2022/10/15 15:50:21;;;;;;;12.93;7.72;;;;;;;17.69;97.31;99758.01;2845899;81;21022;-85
2022/10/15 15:54:22;;;;;;;10.28;7.08;;;;;;;17.70;97.58;99769.62;2859604;82;22224;-85
2022/10/15 15:58:24;;;;;;;12.00;9.00;;;;;;;17.63;98.51;99776.73;2856945;82;21016;-85
2022/10/15 16:02:25;;;;;;;15.35;9.90;;;;;;;17.67;97.87;99772.66;2798645;82;21008;-85
2022/10/15 16:06:26;;;;;;;10.18;7.53;;;;;;;17.66;97.95;99788.47;2837357;82;21039;-85
2022/10/15 16:10:27;;;;;;;10.48;7.65;;;;;;;17.59;98.49;99788.39;2820693;81;21015;-85
2022/10/15 16:14:29;;;;;;;7.67;6.05;;;;;;;17.55;98.76;99795.98;2862184;82;21405;-85
2022/10/15 16:18:30;;;;;;;8.43;6.40;;;;;;;17.52;99.07;99792.32;2857242;82;20983;-85
2022/10/15 16:22:31;;;;;;;8.93;8.05;;;;;;;17.45;99.43;99794.05;2791518;81;21040;-85
2022/10/15 16:26:32;;;;;;;7.58;5.97;;;;;;;17.49;99.20;99800.76;2844594;82;21026;-85
2022/10/15 16:30:33;;;;;;;8.40;6.58;;;;;;;17.44;100.00;99801.80;2814556;82;21042;-85
2022/10/15 16:34:34;;;;;;;8.10;5.20;;;;;;;17.48;99.43;99797.72;2815845;82;21042;-85
2022/10/15 16:38:39;;;;;;;8.88;7.28;;;;;;;17.42;99.51;99802.48;2866952;81;21066;-85
2022/10/15 16:42:40;;;;;;;21.95;12.30;;;;;;;17.44;99.11;99807.70;2856141;82;21015;-85
2022/10/15 16:46:41;;;;;;;15.95;11.30;;;;;;;17.41;99.09;99812.42;2842351;81;21062;-85
2022/10/15 16:50:42;;;;;;;34.38;18.32;;;;;;;17.37;98.91;99815.66;2804414;83;21023;-85
2022/10/15 16:54:43;;;;;;;33.48;18.70;;;;;;;17.35;99.32;99825.75;2847712;81;21030;-85
2022/10/15 16:58:45;;;;;;;18.80;13.45;;;;;;;17.34;99.55;99825.43;2817060;81;21050;-85
2022/10/15 17:02:47;;;;;;;17.10;11.55;;;;;;;17.27;100.00;99837.41;2846234;81;21085;-85
2022/10/15 17:06:48;;;;;;;35.88;10.43;;;;;;;17.21;100.00;99839.48;2843984;81;21069;-85
2022/10/15 17:10:50;;;;;;;9.95;7.55;;;;;;;17.13;100.00;99841.72;2871611;81;21026;-85
2022/10/15 17:14:51;;;;;;;8.45;7.20;;;;;;;17.02;100.00;99848.84;2859090;82;20979;-85
2022/10/15 17:18:54;;;;;;;8.40;6.60;;;;;;;16.85;100.00;99852.45;2843402;82;21078;-85
2022/10/15 17:22:57;;;;;;;13.43;9.58;;;;;;;16.81;100.00;99863.23;2852635;81;21026;-84
2022/10/15 17:26:58;;;;;;;12.20;8.98;;;;;;;16.78;100.00;99870.80;2857276;81;21018;-85
2022/10/15 17:31:06;;;;;;;13.20;10.35;;;;;;;16.74;100.00;99869.48;2868702;82;21051;-85
2022/10/15 17:35:07;;;;;;;17.37;11.40;;;;;;;16.70;100.00;99865.81;2848225;82;20995;-85
2022/10/15 17:39:16;;;;;;;12.88;8.45;;;;;;;16.62;100.00;99857.78;2834738;82;21043;-85
2022/10/15 17:43:17;;;;;;;9.30;7.75;;;;;;;16.57;100.00;99860.17;2841415;81;21060;-85
2022/10/15 17:47:18;;;;;;;10.98;7.12;;;;;;;16.51;100.00;99874.30;2816582;82;21569;-85
2022/10/15 17:51:23;;;;;;;8.53;6.95;;;;;;;16.53;100.00;99883.02;2863676;81;21608;-85
2022/10/15 17:55:26;;;;;;;7.62;6.10;;;;;;;16.49;100.00;99880.33;2859977;82;21095;-85
2022/10/15 17:59:28;;;;;;;6.12;5.00;;;;;;;16.42;100.00;99886.41;2848519;82;21063;-85
2022/10/15 18:03:29;;;;;;;10.45;5.92;;;;;;;16.36;100.00;99893.81;2872123;81;21582;-85
2022/10/15 18:07:30;;;;;;;6.92;5.37;;;;;;;16.35;100.00;99900.69;2858795;81;21016;-85
2022/10/15 18:11:34;;;;;;;7.35;5.53;;;;;;;16.32;100.00;99893.84;2843420;81;21065;-85
2022/10/15 18:15:35;;;;;;;5.17;4.62;;;;;;;16.29;100.00;99894.16;2864386;82;21035;-85
2022/10/15 18:19:36;;;;;;;6.33;4.65;;;;;;;16.26;100.00;99898.05;2844723;81;21163;-85
2022/10/15 18:23:38;;;;;;;5.58;5.05;;;;;;;16.20;100.00;99896.55;2841475;82;21047;-85
2022/10/15 18:27:40;;;;;;;8.63;4.87;;;;;;;16.15;100.00;99893.03;2860254;81;21031;-85
2022/10/15 18:31:41;;;;;;;6.97;4.80;;;;;;;16.13;100.00;99890.54;2843868;81;21081;-85
2022/10/15 18:35:42;;;;;;;7.10;4.83;;;;;;;16.10;100.00;99904.79;2818962;82;21038;-85
2022/10/15 18:39:43;;;;;;;7.37;4.47;;;;;;;16.05;100.00;99901.27;2817868;81;21041;-85
2022/10/15 18:43:54;;;;;;;5.85;4.30;;;;;;;15.99;100.00;99908.16;2844427;81;21054;-85
2022/10/15 18:47:55;;;;;;;5.70;4.75;;;;;;;15.95;100.00;99923.44;2815230;82;21028;-85
2022/10/15 18:51:56;;;;;;;8.93;5.03;;;;;;;15.96;100.00;99928.62;2847536;81;21189;-85